createdAt,value
2023-04-18T00:01:47.250Z,99.90
2023-04-18T00:04:14.470Z,99.90
2023-04-18T00:06:41.798Z,99.90
2023-04-18T00:09:08.675Z,99.90
2023-04-18T00:11:35.472Z,99.90
2023-04-18T00:14:02.305Z,99.90
2023-04-18T00:16:29.443Z,99.90
2023-04-18T00:18:57.596Z,99.90
2023-04-18T00:21:24.397Z,99.90
2023-04-18T00:23:51.341Z,99.90
2023-04-18T00:26:18.220Z,99.90
2023-04-18T00:28:45.009Z,99.90
2023-04-18T00:31:11.993Z,99.90
2023-04-18T00:33:38.875Z,99.90
2023-04-18T00:36:08.019Z,99.90
2023-04-18T00:38:35.460Z,99.90
2023-04-18T00:41:02.242Z,99.90
2023-04-18T00:43:29.331Z,99.90
2023-04-18T00:45:56.226Z,99.90
2023-04-18T00:48:23.573Z,99.90
2023-04-18T00:50:50.371Z,99.90
2023-04-18T00:53:18.680Z,99.90
2023-04-18T00:55:45.668Z,99.90
2023-04-18T00:58:12.686Z,99.90
2023-04-18T01:00:39.839Z,99.90
2023-04-18T01:03:06.743Z,99.90
2023-04-18T01:05:33.700Z,99.90
2023-04-18T01:08:00.672Z,99.90
2023-04-18T01:10:30.401Z,99.90
2023-04-18T01:13:13.286Z,99.90
2023-04-18T01:15:41.193Z,99.90
2023-04-18T01:18:08.893Z,99.90
2023-04-18T01:20:36.468Z,99.90
2023-04-18T01:23:03.771Z,99.90
2023-04-18T01:25:32.356Z,99.90
2023-04-18T01:27:59.381Z,99.90
2023-04-18T01:30:26.298Z,99.90
2023-04-18T01:32:53.143Z,99.90
2023-04-18T01:35:20.112Z,99.90
2023-04-18T01:37:47.153Z,99.90
2023-04-18T01:40:14.289Z,99.90
2023-04-18T01:42:42.516Z,99.90
2023-04-18T01:45:11.080Z,99.90
2023-04-18T01:47:37.968Z,99.90
2023-04-18T01:50:05.802Z,99.90
2023-04-18T01:52:32.615Z,99.90
2023-04-18T01:54:59.482Z,99.90
2023-04-18T01:57:26.328Z,99.90
2023-04-18T01:59:54.521Z,99.90
2023-04-18T02:02:21.486Z,99.90
2023-04-18T02:04:48.378Z,99.90
2023-04-18T02:07:15.170Z,99.90
2023-04-18T02:09:42.054Z,99.90
2023-04-18T02:12:08.990Z,99.90
2023-04-18T02:14:36.575Z,99.90
2023-04-18T02:17:05.038Z,99.90
2023-04-18T02:19:31.810Z,99.90
2023-04-18T02:21:58.624Z,99.90
2023-04-18T02:24:25.331Z,99.90
2023-04-18T02:26:52.175Z,99.90
2023-04-18T02:29:18.919Z,99.90
2023-04-18T02:31:45.857Z,99.90
2023-04-18T02:34:14.320Z,99.90
2023-04-18T02:36:41.282Z,99.90
2023-04-18T02:39:08.063Z,99.90
2023-04-18T02:41:34.913Z,99.90
2023-04-18T02:44:01.655Z,99.90
2023-04-18T02:46:28.553Z,99.90
2023-04-18T02:48:55.372Z,99.90
2023-04-18T02:51:23.564Z,99.90
2023-04-18T02:53:50.304Z,99.90
2023-04-18T02:56:17.141Z,99.90
2023-04-18T02:58:43.947Z,99.90
2023-04-18T03:01:10.734Z,99.90
2023-04-18T03:03:37.522Z,99.90
2023-04-18T03:06:04.722Z,99.90
2023-04-18T03:08:32.901Z,99.90
2023-04-18T03:10:59.760Z,99.90
2023-04-18T03:13:26.602Z,99.90
2023-04-18T03:15:53.569Z,99.90
2023-04-18T03:18:20.374Z,99.90
2023-04-18T03:20:47.162Z,99.90
2023-04-18T03:23:13.999Z,99.90
2023-04-18T03:25:42.208Z,99.90
2023-04-18T03:28:08.989Z,99.90
2023-04-18T03:30:35.818Z,99.90
2023-04-18T03:33:02.716Z,99.90
2023-04-18T03:35:29.694Z,99.90
2023-04-18T03:37:56.485Z,99.90
2023-04-18T03:40:23.244Z,99.90
2023-04-18T03:42:51.369Z,99.90
2023-04-18T03:45:18.178Z,99.90
2023-04-18T03:47:44.960Z,99.90
2023-04-18T03:50:11.882Z,99.90
2023-04-18T03:52:38.624Z,99.90
2023-04-18T03:55:06.292Z,99.90
2023-04-18T03:57:33.093Z,99.90
2023-04-18T04:00:01.235Z,99.90
2023-04-18T04:02:28.218Z,99.90
2023-04-18T04:04:55.071Z,99.90
2023-04-18T04:07:21.946Z,99.90
2023-04-18T04:09:48.704Z,99.90
2023-04-18T04:12:15.781Z,99.90
2023-04-18T04:14:42.697Z,99.90
2023-04-18T04:17:10.938Z,99.90
2023-04-18T04:19:37.785Z,99.90
2023-04-18T04:22:04.608Z,99.90
2023-04-18T04:24:31.356Z,99.90
2023-04-18T04:26:58.315Z,99.90
2023-04-18T04:29:25.403Z,99.90
2023-04-18T04:31:52.275Z,99.90
2023-04-18T04:34:20.678Z,99.90
2023-04-18T04:36:47.600Z,99.90
2023-04-18T04:39:15.277Z,99.90
2023-04-18T04:41:42.244Z,99.90
2023-04-18T04:44:09.100Z,99.90
2023-04-18T04:46:35.984Z,99.90
2023-04-18T04:49:02.992Z,99.90
2023-04-18T04:51:31.252Z,99.90
2023-04-18T04:53:58.204Z,99.90
2023-04-18T04:56:25.002Z,99.90
2023-04-18T04:58:51.736Z,99.90
2023-04-18T05:01:18.495Z,99.90
2023-04-18T05:03:45.389Z,99.90
2023-04-18T05:06:12.633Z,99.90
2023-04-18T05:08:40.777Z,99.90
2023-04-18T05:11:07.610Z,99.90
2023-04-18T05:13:34.406Z,99.90
2023-04-18T05:16:01.607Z,99.90
2023-04-18T05:18:28.353Z,99.90
2023-04-18T05:20:55.085Z,99.90
2023-04-18T05:23:21.857Z,99.90
2023-04-18T05:25:50.033Z,99.90
2023-04-18T05:28:16.926Z,99.90
2023-04-18T05:30:45.090Z,99.90
2023-04-18T05:33:11.833Z,99.90
2023-04-18T05:35:38.643Z,99.90
2023-04-18T05:38:05.382Z,99.90
2023-04-18T05:40:32.150Z,99.90
2023-04-18T05:43:00.606Z,99.90
2023-04-18T05:45:27.399Z,99.90
2023-04-18T05:47:54.208Z,99.90
2023-04-18T05:50:21.065Z,99.90
2023-04-18T05:52:48.250Z,99.90
2023-04-18T05:55:15.091Z,99.90
2023-04-18T05:57:41.850Z,99.90
2023-04-18T06:00:11.606Z,99.90
2023-04-18T06:02:38.573Z,99.90
2023-04-18T06:05:06.462Z,99.90
2023-04-18T06:07:33.430Z,99.90
2023-04-18T06:10:00.236Z,99.90
2023-04-18T06:12:27.048Z,99.90
2023-04-18T06:14:53.800Z,99.90
2023-04-18T06:17:22.032Z,99.90
2023-04-18T06:19:48.821Z,99.90
2023-04-18T06:22:15.714Z,99.90
2023-04-18T06:24:42.461Z,99.90
2023-04-18T06:27:17.496Z,99.90
2023-04-18T06:29:51.060Z,99.90
2023-04-18T06:32:17.835Z,99.90
2023-04-18T06:34:45.942Z,99.90
2023-04-18T06:37:12.779Z,99.90
2023-04-18T06:39:39.598Z,99.90
2023-04-18T06:42:06.463Z,99.90
2023-04-18T06:44:33.200Z,99.90
2023-04-18T06:47:00.020Z,99.90
2023-04-18T06:49:26.871Z,99.90
2023-04-18T06:51:55.059Z,99.90
2023-04-18T06:54:21.833Z,99.90
2023-04-18T06:56:48.644Z,99.90
2023-04-18T06:59:15.486Z,99.90
2023-04-18T07:01:42.346Z,99.90
2023-04-18T07:04:09.669Z,99.90
2023-04-18T07:06:37.216Z,99.90
2023-04-18T07:09:05.407Z,99.90
2023-04-18T07:11:32.145Z,99.90
2023-04-18T07:13:59.035Z,99.90
2023-04-18T07:16:25.796Z,99.90
2023-04-18T07:18:52.631Z,99.90
2023-04-18T07:21:19.401Z,99.90
2023-04-18T07:23:46.360Z,99.90
2023-04-18T07:26:14.584Z,99.90
2023-04-18T07:28:41.358Z,99.90
2023-04-18T07:31:08.180Z,99.80
2023-04-18T07:33:35.083Z,99.50
2023-04-18T07:36:02.007Z,98.80
2023-04-18T07:38:28.870Z,98.40
2023-04-18T07:40:56.922Z,98.40
2023-04-18T07:43:25.593Z,97.50
2023-04-18T07:45:52.580Z,97.50
2023-04-18T07:48:20.517Z,96.80
2023-04-18T07:50:47.369Z,96.70
2023-04-18T07:53:14.140Z,96.10
2023-04-18T07:55:40.867Z,96.00
2023-04-18T07:58:07.647Z,95.20
2023-04-18T08:00:35.969Z,93.90
2023-04-18T08:03:02.944Z,92.30
2023-04-18T08:05:29.881Z,91.60
2023-04-18T08:07:56.724Z,90.90
2023-04-18T08:10:23.996Z,91.20
2023-04-18T08:12:50.898Z,91.10
2023-04-18T08:15:17.725Z,90.60
2023-04-18T08:17:45.798Z,90.70
2023-04-18T08:20:13.082Z,90.80
2023-04-18T08:22:53.817Z,90.80
2023-04-18T08:25:26.673Z,90.80
2023-04-18T08:27:53.444Z,90.60
2023-04-18T08:30:20.263Z,90.90
2023-04-18T08:32:48.468Z,91.30
2023-04-18T08:35:15.286Z,91.60
2023-04-18T08:37:42.254Z,92.00
2023-04-18T08:40:09.338Z,92.20
2023-04-18T08:42:36.548Z,92.60
2023-04-18T08:45:03.809Z,93.00
2023-04-18T08:47:30.657Z,93.40
2023-04-18T08:49:58.793Z,93.70
2023-04-18T08:52:26.445Z,94.10
2023-04-18T08:54:53.294Z,94.50
2023-04-18T08:57:20.078Z,94.90
2023-04-18T08:59:48.267Z,95.40
2023-04-18T09:02:16.649Z,95.60
2023-04-18T09:04:44.872Z,95.70
2023-04-18T09:07:14.736Z,95.80
2023-04-18T09:09:43.926Z,95.90
2023-04-18T09:12:12.300Z,95.90
2023-04-18T09:14:39.092Z,95.90
2023-04-18T09:17:05.984Z,95.80
2023-04-18T09:19:33.248Z,95.80
2023-04-18T09:22:01.423Z,95.10
2023-04-18T09:24:29.944Z,94.90
2023-04-18T09:26:57.552Z,94.70
2023-04-18T09:29:42.428Z,94.30
2023-04-18T09:32:09.331Z,93.90
2023-04-18T09:34:42.071Z,93.80
2023-04-18T09:37:10.212Z,93.70
2023-04-18T09:39:39.701Z,93.50
2023-04-18T09:42:06.708Z,93.30
2023-04-18T09:44:34.615Z,93.50
2023-04-18T09:47:01.648Z,93.50
2023-04-18T09:49:29.008Z,93.40
2023-04-18T09:51:56.485Z,93.10
2023-04-18T09:54:25.095Z,93.00
2023-04-18T09:56:53.406Z,93.00
2023-04-18T09:59:51.033Z,92.60
2023-04-18T10:02:21.955Z,92.00
2023-04-18T10:04:50.303Z,91.70
2023-04-18T10:07:17.724Z,91.10
2023-04-18T10:09:46.158Z,90.20
2023-04-18T10:12:15.938Z,89.60
2023-04-18T10:14:43.499Z,89.50
2023-04-18T10:17:10.568Z,86.50
2023-04-18T10:19:38.323Z,85.60
2023-04-18T10:22:05.063Z,83.20
2023-04-18T10:24:48.583Z,80.70
2023-04-18T10:27:17.341Z,78.60
2023-04-18T10:29:47.777Z,77.40
2023-04-18T10:32:14.744Z,77.20
2023-04-18T10:34:41.632Z,76.90
2023-04-18T10:37:08.672Z,77.10
2023-04-18T10:39:49.049Z,78.40
2023-04-18T10:42:17.174Z,80.00
2023-04-18T10:44:43.914Z,81.60
2023-04-18T10:47:31.659Z,82.60
2023-04-18T10:52:50.054Z,84.20
2023-04-18T10:55:20.601Z,85.20
2023-04-18T10:57:49.398Z,85.80
2023-04-18T11:00:18.533Z,85.20
2023-04-18T11:02:53.944Z,85.00
2023-04-18T11:05:23.326Z,84.30
2023-04-18T11:07:50.369Z,83.80
2023-04-18T11:10:18.632Z,83.70
2023-04-18T11:12:46.132Z,83.80
2023-04-18T11:15:16.227Z,83.90
2023-04-18T11:17:44.202Z,84.00
2023-04-18T11:20:13.022Z,83.80
2023-04-18T11:22:48.446Z,83.90
2023-04-18T11:25:16.418Z,82.80
2023-04-18T11:27:44.206Z,79.80
2023-04-18T11:30:12.452Z,76.80
2023-04-18T11:32:41.261Z,76.50
2023-04-18T11:35:10.124Z,76.40
2023-04-18T11:37:37.733Z,77.30
2023-04-18T11:40:05.397Z,78.00
2023-04-18T11:42:33.640Z,78.30
2023-04-18T11:45:00.509Z,77.40
2023-04-18T11:47:29.411Z,77.30
2023-04-18T11:49:59.446Z,77.00
2023-04-18T11:52:28.250Z,75.60
2023-04-18T11:54:56.153Z,74.70
2023-04-18T11:57:24.597Z,74.00
2023-04-18T11:59:52.874Z,73.70
2023-04-18T12:02:21.055Z,74.10
2023-04-18T12:04:55.771Z,73.90
2023-04-18T12:07:35.839Z,73.20
2023-04-18T12:10:04.181Z,71.20
2023-04-18T12:12:31.452Z,69.40
2023-04-18T12:15:00.299Z,67.50
2023-04-18T12:17:27.257Z,66.20
2023-04-18T12:19:54.218Z,64.80
2023-04-18T12:22:36.158Z,65.60
2023-04-18T12:25:25.017Z,66.40
2023-04-18T12:27:56.184Z,66.40
2023-04-18T12:30:25.319Z,66.20
2023-04-18T12:33:05.816Z,67.30
2023-04-18T12:35:33.048Z,66.50
2023-04-18T12:38:01.794Z,66.60
2023-04-18T12:43:40.436Z,67.60
2023-04-18T12:46:07.525Z,67.00
2023-04-18T12:48:34.291Z,67.00
2023-04-18T12:51:01.178Z,67.20
2023-04-18T12:53:27.998Z,67.00
2023-04-18T12:55:54.762Z,66.80
2023-04-18T12:58:21.528Z,67.50
2023-04-18T13:00:49.850Z,67.50
2023-04-18T13:03:16.887Z,67.40
2023-04-18T13:05:44.176Z,67.60
2023-04-18T13:08:17.263Z,67.70
2023-04-18T13:10:45.767Z,68.20
2023-04-18T13:13:12.793Z,69.10
2023-04-18T13:15:39.643Z,69.90
2023-04-18T13:18:08.055Z,71.00
2023-04-18T13:20:35.129Z,72.20
2023-04-18T13:23:02.951Z,73.10
2023-04-18T13:25:29.896Z,73.60
2023-04-18T13:27:56.754Z,73.80
2023-04-18T13:30:23.624Z,74.20
2023-04-18T13:32:50.377Z,75.30
2023-04-18T13:35:19.008Z,75.20
2023-04-18T13:37:46.101Z,75.80
2023-04-18T13:40:13.241Z,76.40
2023-04-18T13:42:40.146Z,77.00
2023-04-18T13:45:07.789Z,76.30
2023-04-18T13:47:34.907Z,76.70
2023-04-18T13:50:01.915Z,77.00
2023-04-18T13:52:30.466Z,77.10
2023-04-18T13:54:57.264Z,77.20
2023-04-18T13:57:24.098Z,77.20
2023-04-18T13:59:51.004Z,77.50
2023-04-18T14:02:18.147Z,77.60
2023-04-18T14:04:45.198Z,77.90
2023-04-18T14:07:12.159Z,77.40
2023-04-18T14:09:40.340Z,77.90
2023-04-18T14:12:07.558Z,78.30
2023-04-18T14:14:34.601Z,78.90
2023-04-18T14:17:01.427Z,79.50
2023-04-18T14:19:28.196Z,79.80
2023-04-18T14:21:55.052Z,80.50
2023-04-18T14:24:21.903Z,80.60
2023-04-18T14:26:50.180Z,81.30
2023-04-18T14:29:17.106Z,82.00
2023-04-18T14:31:44.116Z,82.80
2023-04-18T14:34:10.921Z,83.50
2023-04-18T14:36:37.783Z,84.20
2023-04-18T14:39:04.920Z,85.20
2023-04-18T14:41:31.996Z,86.30
2023-04-18T14:44:01.114Z,87.40
2023-04-18T14:46:28.031Z,87.50
2023-04-18T14:48:54.940Z,87.60
2023-04-18T14:51:23.464Z,87.90
2023-04-18T14:53:50.401Z,88.20
2023-04-18T14:56:17.533Z,88.40
2023-04-18T14:58:45.218Z,88.70
2023-04-18T15:01:13.684Z,88.80
2023-04-18T15:03:40.622Z,88.70
2023-04-18T15:06:08.098Z,88.70
2023-04-18T15:08:34.913Z,88.20
2023-04-18T15:11:05.470Z,87.70
2023-04-18T15:13:32.944Z,87.50
2023-04-18T15:15:59.756Z,87.70
2023-04-18T15:18:28.226Z,88.20
2023-04-18T15:20:55.067Z,88.80
2023-04-18T15:23:22.188Z,90.30
2023-04-18T15:25:49.069Z,90.70
2023-04-18T15:28:16.156Z,91.10
2023-04-18T15:30:42.954Z,91.40
2023-04-18T15:33:10.609Z,91.50
2023-04-18T15:35:39.129Z,91.50
2023-04-18T15:38:06.212Z,91.40
2023-04-18T15:40:33.022Z,91.40
2023-04-18T15:42:59.888Z,91.30
2023-04-18T15:45:26.797Z,91.30
2023-04-18T15:47:53.682Z,91.30
2023-04-18T15:50:20.655Z,91.20
2023-04-18T15:52:48.898Z,91.20
2023-04-18T15:55:16.042Z,91.20
2023-04-18T15:57:42.804Z,91.30
2023-04-18T16:00:11.444Z,91.40
2023-04-18T16:02:38.283Z,91.30
2023-04-18T16:05:05.882Z,91.40
2023-04-18T16:07:32.732Z,91.50
2023-04-18T16:10:00.917Z,91.60
2023-04-18T16:12:27.725Z,91.70
2023-04-18T16:14:54.566Z,91.80
2023-04-18T16:17:21.362Z,92.00
2023-04-18T16:19:48.337Z,91.80
2023-04-18T16:22:15.126Z,91.80
2023-04-18T16:24:42.276Z,91.90
2023-04-18T16:27:10.727Z,92.00
2023-04-18T16:29:37.677Z,91.90
2023-04-18T16:32:04.708Z,91.90
2023-04-18T16:34:31.516Z,92.00
2023-04-18T16:36:58.326Z,92.10
2023-04-18T16:39:25.122Z,92.20
2023-04-18T16:41:52.032Z,92.30
2023-04-18T16:44:20.188Z,92.30
2023-04-18T16:46:47.008Z,92.30
2023-04-18T16:49:13.944Z,92.40
2023-04-18T16:54:08.684Z,92.40
2023-04-18T16:56:35.524Z,92.40
2023-04-18T16:59:02.241Z,92.20
2023-04-18T17:01:30.403Z,92.10
2023-04-18T17:03:58.338Z,92.20
2023-04-18T17:06:25.252Z,91.80
2023-04-18T17:08:51.976Z,91.80
2023-04-18T17:11:18.926Z,91.60
2023-04-18T17:13:45.674Z,91.70
2023-04-18T17:16:12.451Z,91.70
2023-04-18T17:18:40.624Z,91.80
2023-04-18T17:21:07.446Z,92.00
2023-04-18T17:23:34.229Z,92.20
2023-04-18T17:26:00.985Z,92.50
2023-04-18T17:28:27.845Z,92.80
2023-04-18T17:30:54.568Z,93.00
2023-04-18T17:33:21.302Z,93.60
2023-04-18T17:35:49.378Z,93.90
2023-04-18T17:38:16.169Z,94.20
2023-04-18T17:40:43.023Z,94.50
2023-04-18T17:43:11.013Z,94.80
2023-04-18T17:45:38.141Z,95.00
2023-04-18T17:48:05.504Z,95.50
2023-04-18T17:50:32.325Z,95.90
2023-04-18T17:53:00.413Z,96.20
2023-04-18T17:55:27.263Z,96.80
2023-04-18T17:57:53.990Z,97.70
2023-04-18T18:00:21.046Z,98.10
2023-04-18T18:02:47.916Z,98.40
2023-04-18T18:05:14.806Z,99.10
2023-04-18T18:07:41.537Z,99.70
2023-04-18T18:10:10.704Z,99.90
2023-04-18T18:12:37.472Z,99.90
2023-04-18T18:15:05.448Z,99.90
2023-04-18T18:17:32.241Z,99.90
2023-04-18T18:19:59.049Z,99.90
2023-04-18T18:22:25.805Z,99.90
2023-04-18T18:24:52.655Z,99.90
2023-04-18T18:27:20.756Z,99.90
2023-04-18T18:29:47.482Z,99.90
2023-04-18T18:32:14.234Z,99.90
2023-04-18T18:34:40.936Z,99.90
2023-04-18T18:37:07.735Z,99.90
2023-04-18T18:39:34.550Z,99.90
2023-04-18T18:42:01.286Z,99.90
2023-04-18T18:44:29.403Z,99.90
2023-04-18T18:46:56.209Z,99.90
2023-04-18T18:49:23.024Z,99.90
2023-04-18T18:51:49.873Z,99.90
2023-04-18T18:54:16.627Z,99.90
2023-04-18T18:56:43.545Z,99.90
2023-04-18T18:59:10.526Z,99.90
2023-04-18T19:01:38.757Z,99.90
2023-04-18T19:04:05.763Z,99.90
2023-04-18T19:06:32.755Z,99.90
2023-04-18T19:08:59.520Z,99.90
2023-04-18T19:11:26.332Z,99.90
2023-04-18T19:13:53.243Z,99.90
2023-04-18T19:16:20.325Z,99.90
2023-04-18T19:18:48.526Z,99.90
2023-04-18T19:21:15.623Z,99.90
2023-04-18T19:23:42.427Z,99.90
2023-04-18T19:26:09.520Z,99.90
2023-04-18T19:28:36.297Z,99.90
2023-04-18T19:31:03.079Z,99.90
2023-04-18T19:33:29.860Z,99.90
2023-04-18T19:35:58.607Z,99.90
2023-04-18T19:38:25.578Z,99.90
2023-04-18T19:40:52.338Z,99.90
2023-04-18T19:43:19.089Z,99.90
2023-04-18T19:45:45.880Z,99.90
2023-04-18T19:48:12.711Z,99.90
2023-04-18T19:50:39.679Z,99.90
2023-04-18T19:53:08.043Z,99.90
2023-04-18T19:55:34.787Z,99.90
2023-04-18T19:58:01.554Z,99.90
2023-04-18T20:00:28.437Z,99.90
2023-04-18T20:02:55.474Z,99.90
2023-04-18T20:05:22.762Z,99.90
2023-04-18T20:07:49.660Z,99.90
2023-04-18T20:10:20.086Z,99.90
2023-04-18T20:12:49.952Z,99.90
2023-04-18T20:15:17.224Z,99.90
2023-04-18T20:17:44.006Z,99.90
2023-04-18T20:20:11.750Z,99.90
2023-04-18T20:22:38.486Z,99.90
2023-04-18T20:25:05.999Z,99.90
2023-04-18T20:27:34.106Z,99.90
2023-04-18T20:30:00.894Z,99.90
2023-04-18T20:32:27.758Z,99.90
2023-04-18T20:34:54.575Z,99.90
2023-04-18T20:37:21.415Z,99.90
2023-04-18T20:39:48.184Z,99.90
2023-04-18T20:42:14.939Z,99.90
2023-04-18T20:44:43.164Z,99.90
2023-04-18T20:47:10.088Z,99.90
2023-04-18T20:49:36.886Z,99.90
2023-04-18T20:52:07.561Z,99.90
2023-04-18T20:54:34.416Z,99.90
2023-04-18T20:57:01.205Z,99.90
2023-04-18T20:59:27.977Z,99.90
2023-04-18T21:01:56.269Z,99.90
2023-04-18T21:04:23.446Z,99.90
2023-04-18T21:06:50.320Z,99.90
2023-04-18T21:09:17.228Z,99.90
2023-04-18T21:11:44.072Z,99.90
2023-04-18T21:14:10.807Z,99.90
2023-04-18T21:16:37.746Z,99.90
2023-04-18T21:19:06.227Z,99.90
2023-04-18T21:21:33.001Z,99.90
2023-04-18T21:23:59.890Z,99.90
2023-04-18T21:26:26.760Z,99.90
2023-04-18T21:28:55.419Z,99.90
2023-04-18T21:31:22.611Z,99.90
2023-04-18T21:33:52.155Z,99.90
2023-04-18T21:36:20.422Z,99.90
2023-04-18T21:38:47.266Z,99.90
2023-04-18T21:41:15.224Z,99.90
2023-04-18T21:43:41.976Z,99.90
2023-04-18T21:46:08.781Z,99.90
2023-04-18T21:48:35.633Z,99.90
2023-04-18T21:51:02.369Z,99.90
2023-04-18T21:53:30.457Z,99.90
2023-04-18T21:55:57.244Z,99.90
2023-04-18T21:58:23.963Z,99.90
2023-04-18T22:00:50.770Z,99.90
2023-04-18T22:03:17.688Z,99.90
2023-04-18T22:05:44.627Z,99.90
2023-04-18T22:08:11.408Z,99.90
2023-04-18T22:10:39.516Z,99.90
2023-04-18T22:13:06.296Z,99.90
2023-04-18T22:15:33.082Z,99.90
2023-04-18T22:17:59.901Z,99.90
2023-04-18T22:20:26.882Z,99.90
2023-04-18T22:22:54.086Z,99.90
2023-04-18T22:25:20.889Z,99.90
2023-04-18T22:27:48.965Z,99.90
2023-04-18T22:30:15.814Z,99.90
2023-04-18T22:32:42.632Z,99.90
2023-04-18T22:35:09.897Z,99.90
2023-04-18T22:37:36.684Z,99.90
2023-04-18T22:40:04.023Z,99.90
2023-04-18T22:42:31.636Z,99.90
2023-04-18T22:45:00.792Z,99.90
2023-04-18T22:47:27.634Z,99.90
2023-04-18T22:49:54.450Z,99.90
2023-04-18T22:52:21.160Z,99.90
2023-04-18T22:54:47.873Z,99.90
2023-04-18T22:57:14.568Z,99.90
2023-04-18T22:59:41.316Z,99.90
2023-04-18T23:02:10.061Z,99.90
2023-04-18T23:04:37.131Z,99.90
2023-04-18T23:07:03.947Z,99.90
2023-04-18T23:09:31.059Z,99.90
2023-04-18T23:11:57.806Z,99.90
2023-04-18T23:14:24.610Z,99.90
2023-04-18T23:16:51.364Z,99.90
2023-04-18T23:19:19.576Z,99.90
2023-04-18T23:21:47.727Z,99.90
2023-04-18T23:24:16.422Z,99.90
2023-04-18T23:26:43.247Z,99.90
2023-04-18T23:29:10.003Z,99.90
2023-04-18T23:31:36.773Z,99.90
2023-04-18T23:34:03.544Z,99.90
2023-04-18T23:36:31.717Z,99.90
2023-04-18T23:38:58.445Z,99.90
2023-04-18T23:41:25.165Z,99.90
2023-04-18T23:43:51.887Z,99.90
2023-04-18T23:46:18.813Z,99.90
2023-04-18T23:48:45.593Z,99.90
2023-04-18T23:51:12.454Z,99.90
2023-04-18T23:53:40.579Z,99.90
2023-04-18T23:56:07.452Z,99.90
2023-04-18T23:58:34.214Z,99.90
